Decatur, Illinois
Current Conditions -  °F | °C
As of 4:22 PM on Saturday 20 Dec 2014 (Local Time) from KDEC Reporting Station
Overcast Overcast  
Wind Chill: 29°   Ceiling: 2600
Heat Index: 35°   Visibility: 9mi
Dew Point: 27°   Wind: 7mph
Humidity: 72%   Direction: 140°SE
Pressure: 30.26"   Gusts: NA
Location:  39.85°N, 88.95°W
Report Text: KDEC 202222Z 14006KT 9SM OVC026 02/M03 A3026 RMK AO2 T00171028
Loading
Personal Weather Stations






























Interactive Weather Map New forecast layout! Learn more

10-Day Weather Forecast

Advertisements
Track Severe Weather on mobile